sensor_id;sensor_type;location;lat;lon;timestamp;P1;durP1;ratioP1;P2;durP2;ratioP2
19032;SDS011;9649;51.042;13.804;2024-03-08T00:01:35;37.90;;;19.80;;
19032;SDS011;9649;51.042;13.804;2024-03-08T00:06:43;38.23;;;20.30;;
19032;SDS011;9649;51.042;13.804;2024-03-08T00:11:56;35.63;;;19.03;;
19032;SDS011;9649;51.042;13.804;2024-03-08T00:17:03;44.93;;;22.33;;
19032;SDS011;9649;51.042;13.804;2024-03-08T00:22:07;41.63;;;21.43;;
19032;SDS011;9649;51.042;13.804;2024-03-08T00:27:12;47.90;;;22.90;;
19032;SDS011;9649;51.042;13.804;2024-03-08T00:32:18;45.57;;;23.00;;
19032;SDS011;9649;51.042;13.804;2024-03-08T00:37:26;40.13;;;21.03;;
19032;SDS011;9649;51.042;13.804;2024-03-08T00:42:30;46.47;;;22.70;;
19032;SDS011;9649;51.042;13.804;2024-03-08T00:47:35;39.70;;;20.67;;
19032;SDS011;9649;51.042;13.804;2024-03-08T00:52:39;44.60;;;21.87;;
19032;SDS011;9649;51.042;13.804;2024-03-08T00:57:49;44.03;;;22.20;;
19032;SDS011;9649;51.042;13.804;2024-03-08T01:02:54;45.33;;;22.47;;
19032;SDS011;9649;51.042;13.804;2024-03-08T01:08:00;42.27;;;21.23;;
19032;SDS011;9649;51.042;13.804;2024-03-08T01:13:06;40.33;;;20.93;;
19032;SDS011;9649;51.042;13.804;2024-03-08T01:18:11;43.37;;;22.03;;
19032;SDS011;9649;51.042;13.804;2024-03-08T01:23:16;45.00;;;22.27;;
19032;SDS011;9649;51.042;13.804;2024-03-08T01:28:20;44.47;;;22.10;;
19032;SDS011;9649;51.042;13.804;2024-03-08T01:33:32;48.13;;;23.13;;
19032;SDS011;9649;51.042;13.804;2024-03-08T01:38:46;42.27;;;22.13;;
19032;SDS011;9649;51.042;13.804;2024-03-08T01:44:03;44.70;;;23.03;;
19032;SDS011;9649;51.042;13.804;2024-03-08T01:49:09;47.47;;;23.97;;
19032;SDS011;9649;51.042;13.804;2024-03-08T01:54:20;49.50;;;24.17;;
19032;SDS011;9649;51.042;13.804;2024-03-08T01:59:36;45.37;;;22.17;;
19032;SDS011;9649;51.042;13.804;2024-03-08T02:04:45;48.43;;;22.53;;
19032;SDS011;9649;51.042;13.804;2024-03-08T02:09:56;45.87;;;21.90;;
19032;SDS011;9649;51.042;13.804;2024-03-08T02:15:02;43.03;;;21.67;;
19032;SDS011;9649;51.042;13.804;2024-03-08T02:20:12;48.00;;;22.80;;
19032;SDS011;9649;51.042;13.804;2024-03-08T02:25:23;44.17;;;23.00;;
19032;SDS011;9649;51.042;13.804;2024-03-08T02:30:30;45.80;;;21.87;;
19032;SDS011;9649;51.042;13.804;2024-03-08T02:35:43;51.20;;;23.63;;
19032;SDS011;9649;51.042;13.804;2024-03-08T02:40:58;47.30;;;23.07;;
19032;SDS011;9649;51.042;13.804;2024-03-08T02:46:04;47.30;;;23.90;;
19032;SDS011;9649;51.042;13.804;2024-03-08T02:51:18;46.90;;;22.20;;
19032;SDS011;9649;51.042;13.804;2024-03-08T02:56:32;45.07;;;22.57;;
19032;SDS011;9649;51.042;13.804;2024-03-08T03:01:46;48.53;;;23.83;;
19032;SDS011;9649;51.042;13.804;2024-03-08T03:06:54;50.00;;;23.23;;
19032;SDS011;9649;51.042;13.804;2024-03-08T03:12:03;46.60;;;22.90;;
19032;SDS011;9649;51.042;13.804;2024-03-08T03:17:10;45.97;;;22.47;;
19032;SDS011;9649;51.042;13.804;2024-03-08T03:22:21;50.33;;;23.43;;
19032;SDS011;9649;51.042;13.804;2024-03-08T03:27:28;52.37;;;23.93;;
19032;SDS011;9649;51.042;13.804;2024-03-08T03:32:41;49.87;;;23.47;;
19032;SDS011;9649;51.042;13.804;2024-03-08T03:37:54;49.43;;;22.37;;
19032;SDS011;9649;51.042;13.804;2024-03-08T03:43:13;50.97;;;22.67;;
19032;SDS011;9649;51.042;13.804;2024-03-08T03:48:19;47.17;;;22.83;;
19032;SDS011;9649;51.042;13.804;2024-03-08T03:53:26;50.63;;;22.37;;
19032;SDS011;9649;51.042;13.804;2024-03-08T03:58:45;49.57;;;22.40;;
19032;SDS011;9649;51.042;13.804;2024-03-08T04:03:54;47.03;;;22.60;;
19032;SDS011;9649;51.042;13.804;2024-03-08T04:09:13;50.73;;;24.00;;
19032;SDS011;9649;51.042;13.804;2024-03-08T04:14:22;47.93;;;23.77;;
19032;SDS011;9649;51.042;13.804;2024-03-08T04:19:27;49.33;;;23.47;;
19032;SDS011;9649;51.042;13.804;2024-03-08T04:24:36;46.80;;;23.60;;
19032;SDS011;9649;51.042;13.804;2024-03-08T04:29:42;54.03;;;24.77;;
19032;SDS011;9649;51.042;13.804;2024-03-08T04:34:48;54.03;;;23.97;;
19032;SDS011;9649;51.042;13.804;2024-03-08T04:39:56;52.67;;;24.53;;
19032;SDS011;9649;51.042;13.804;2024-03-08T04:45:05;53.43;;;24.13;;
19032;SDS011;9649;51.042;13.804;2024-03-08T04:50:12;52.67;;;24.43;;
19032;SDS011;9649;51.042;13.804;2024-03-08T04:55:15;54.57;;;24.50;;
19032;SDS011;9649;51.042;13.804;2024-03-08T05:00:34;69.73;;;29.57;;
19032;SDS011;9649;51.042;13.804;2024-03-08T05:05:37;55.50;;;25.60;;
19032;SDS011;9649;51.042;13.804;2024-03-08T05:10:42;51.70;;;23.43;;
19032;SDS011;9649;51.042;13.804;2024-03-08T05:15:52;52.63;;;24.53;;
19032;SDS011;9649;51.042;13.804;2024-03-08T05:20:55;54.83;;;26.10;;
19032;SDS011;9649;51.042;13.804;2024-03-08T05:25:59;56.67;;;25.60;;
19032;SDS011;9649;51.042;13.804;2024-03-08T05:31:03;52.07;;;25.33;;
19032;SDS011;9649;51.042;13.804;2024-03-08T05:36:08;58.30;;;25.87;;
19032;SDS011;9649;51.042;13.804;2024-03-08T05:41:13;53.13;;;26.10;;
19032;SDS011;9649;51.042;13.804;2024-03-08T05:46:17;54.13;;;24.17;;
19032;SDS011;9649;51.042;13.804;2024-03-08T05:51:23;56.03;;;25.13;;
19032;SDS011;9649;51.042;13.804;2024-03-08T05:56:29;59.20;;;25.50;;
19032;SDS011;9649;51.042;13.804;2024-03-08T06:01:34;56.90;;;26.27;;
19032;SDS011;9649;51.042;13.804;2024-03-08T06:06:37;66.27;;;29.43;;
19032;SDS011;9649;51.042;13.804;2024-03-08T06:11:44;64.90;;;27.87;;
19032;SDS011;9649;51.042;13.804;2024-03-08T06:16:49;64.37;;;26.53;;
19032;SDS011;9649;51.042;13.804;2024-03-08T06:21:52;53.40;;;24.03;;
19032;SDS011;9649;51.042;13.804;2024-03-08T06:26:54;54.10;;;25.23;;
19032;SDS011;9649;51.042;13.804;2024-03-08T06:31:59;50.60;;;23.60;;
19032;SDS011;9649;51.042;13.804;2024-03-08T06:37:01;52.57;;;24.87;;
19032;SDS011;9649;51.042;13.804;2024-03-08T06:42:05;50.47;;;22.87;;
19032;SDS011;9649;51.042;13.804;2024-03-08T06:47:13;50.20;;;23.90;;
19032;SDS011;9649;51.042;13.804;2024-03-08T06:52:18;45.63;;;22.47;;
19032;SDS011;9649;51.042;13.804;2024-03-08T06:57:21;43.60;;;21.50;;
19032;SDS011;9649;51.042;13.804;2024-03-08T07:02:27;51.83;;;23.23;;
19032;SDS011;9649;51.042;13.804;2024-03-08T07:07:31;52.57;;;24.27;;
19032;SDS011;9649;51.042;13.804;2024-03-08T07:12:41;49.43;;;23.47;;
19032;SDS011;9649;51.042;13.804;2024-03-08T07:17:47;43.60;;;22.53;;
19032;SDS011;9649;51.042;13.804;2024-03-08T07:22:51;46.60;;;23.27;;
19032;SDS011;9649;51.042;13.804;2024-03-08T07:27:56;45.63;;;22.97;;
19032;SDS011;9649;51.042;13.804;2024-03-08T07:33:00;42.37;;;22.63;;
19032;SDS011;9649;51.042;13.804;2024-03-08T07:38:04;43.63;;;22.17;;
19032;SDS011;9649;51.042;13.804;2024-03-08T07:43:09;45.37;;;23.03;;
19032;SDS011;9649;51.042;13.804;2024-03-08T07:48:15;43.27;;;21.80;;
19032;SDS011;9649;51.042;13.804;2024-03-08T07:53:19;41.70;;;22.73;;
19032;SDS011;9649;51.042;13.804;2024-03-08T07:58:22;41.77;;;20.20;;
19032;SDS011;9649;51.042;13.804;2024-03-08T08:09:41;34.70;;;18.47;;
19032;SDS011;9649;51.042;13.804;2024-03-08T08:15:33;34.30;;;18.13;;
19032;SDS011;9649;51.042;13.804;2024-03-08T08:20:44;30.27;;;18.17;;
19032;SDS011;9649;51.042;13.804;2024-03-08T08:26:01;30.35;;;18.70;;
19032;SDS011;9649;51.042;13.804;2024-03-08T08:31:13;30.00;;;18.17;;
19032;SDS011;9649;51.042;13.804;2024-03-08T08:36:18;27.95;;;18.30;;
19032;SDS011;9649;51.042;13.804;2024-03-08T08:41:23;29.00;;;17.73;;
19032;SDS011;9649;51.042;13.804;2024-03-08T08:46:27;25.27;;;16.17;;
19032;SDS011;9649;51.042;13.804;2024-03-08T08:51:31;24.65;;;16.17;;
19032;SDS011;9649;51.042;13.804;2024-03-08T08:56:38;27.48;;;16.35;;
19032;SDS011;9649;51.042;13.804;2024-03-08T09:01:42;27.33;;;16.45;;
19032;SDS011;9649;51.042;13.804;2024-03-08T09:06:48;25.63;;;16.20;;
19032;SDS011;9649;51.042;13.804;2024-03-08T09:11:58;27.30;;;16.17;;
19032;SDS011;9649;51.042;13.804;2024-03-08T09:17:11;26.23;;;15.40;;
19032;SDS011;9649;51.042;13.804;2024-03-08T09:22:22;23.77;;;14.95;;
19032;SDS011;9649;51.042;13.804;2024-03-08T09:27:27;28.30;;;15.25;;
19032;SDS011;9649;51.042;13.804;2024-03-08T09:32:31;25.33;;;15.50;;
19032;SDS011;9649;51.042;13.804;2024-03-08T09:37:37;22.92;;;14.85;;
19032;SDS011;9649;51.042;13.804;2024-03-08T09:42:44;22.45;;;14.77;;
19032;SDS011;9649;51.042;13.804;2024-03-08T09:47:48;24.05;;;15.10;;
19032;SDS011;9649;51.042;13.804;2024-03-08T09:52:51;21.48;;;14.32;;
19032;SDS011;9649;51.042;13.804;2024-03-08T09:57:56;21.83;;;13.95;;
19032;SDS011;9649;51.042;13.804;2024-03-08T10:03:37;18.48;;;13.25;;
19032;SDS011;9649;51.042;13.804;2024-03-08T10:08:41;22.38;;;13.73;;
19032;SDS011;9649;51.042;13.804;2024-03-08T10:13:48;21.00;;;14.48;;
19032;SDS011;9649;51.042;13.804;2024-03-08T10:18:52;22.80;;;14.63;;
19032;SDS011;9649;51.042;13.804;2024-03-08T10:23:55;20.90;;;14.38;;
19032;SDS011;9649;51.042;13.804;2024-03-08T10:29:01;19.75;;;14.27;;
19032;SDS011;9649;51.042;13.804;2024-03-08T10:34:08;22.55;;;15.27;;
19032;SDS011;9649;51.042;13.804;2024-03-08T10:39:14;19.00;;;14.05;;
19032;SDS011;9649;51.042;13.804;2024-03-08T10:44:36;22.70;;;15.63;;
19032;SDS011;9649;51.042;13.804;2024-03-08T10:49:50;23.60;;;14.90;;
19032;SDS011;9649;51.042;13.804;2024-03-08T10:54:57;23.35;;;14.93;;
19032;SDS011;9649;51.042;13.804;2024-03-08T11:00:05;22.05;;;14.13;;
19032;SDS011;9649;51.042;13.804;2024-03-08T11:05:15;20.95;;;14.07;;
19032;SDS011;9649;51.042;13.804;2024-03-08T11:10:45;23.33;;;14.05;;
19032;SDS011;9649;51.042;13.804;2024-03-08T11:15:55;20.92;;;14.02;;
19032;SDS011;9649;51.042;13.804;2024-03-08T11:21:02;22.67;;;13.82;;
19032;SDS011;9649;51.042;13.804;2024-03-08T11:26:21;20.42;;;13.25;;
19032;SDS011;9649;51.042;13.804;2024-03-08T11:31:28;16.77;;;12.43;;
19032;SDS011;9649;51.042;13.804;2024-03-08T11:36:34;20.17;;;12.65;;
19032;SDS011;9649;51.042;13.804;2024-03-08T11:41:39;18.38;;;12.57;;
19032;SDS011;9649;51.042;13.804;2024-03-08T11:46:46;17.70;;;12.40;;
19032;SDS011;9649;51.042;13.804;2024-03-08T11:51:51;18.88;;;11.85;;
19032;SDS011;9649;51.042;13.804;2024-03-08T11:56:57;14.98;;;10.80;;
19032;SDS011;9649;51.042;13.804;2024-03-08T12:02:04;15.15;;;10.25;;
19032;SDS011;9649;51.042;13.804;2024-03-08T12:07:26;13.27;;;9.48;;
19032;SDS011;9649;51.042;13.804;2024-03-08T12:13:09;13.88;;;9.82;;
19032;SDS011;9649;51.042;13.804;2024-03-08T12:19:07;13.25;;;9.73;;
19032;SDS011;9649;51.042;13.804;2024-03-08T12:24:26;12.52;;;9.60;;
19032;SDS011;9649;51.042;13.804;2024-03-08T12:29:38;16.08;;;10.88;;
19032;SDS011;9649;51.042;13.804;2024-03-08T12:35:06;14.52;;;9.93;;
19032;SDS011;9649;51.042;13.804;2024-03-08T12:40:40;14.18;;;9.45;;
19032;SDS011;9649;51.042;13.804;2024-03-08T12:46:01;14.65;;;9.77;;
19032;SDS011;9649;51.042;13.804;2024-03-08T12:57:58;12.18;;;9.10;;
19032;SDS011;9649;51.042;13.804;2024-03-08T13:03:41;14.52;;;10.02;;
19032;SDS011;9649;51.042;13.804;2024-03-08T13:09:40;13.00;;;9.90;;
19032;SDS011;9649;51.042;13.804;2024-03-08T13:21:07;15.15;;;9.93;;
19032;SDS011;9649;51.042;13.804;2024-03-08T13:26:38;14.77;;;9.88;;
19032;SDS011;9649;51.042;13.804;2024-03-08T13:32:37;14.70;;;10.15;;
19032;SDS011;9649;51.042;13.804;2024-03-08T13:38:07;16.30;;;8.70;;
19032;SDS011;9649;51.042;13.804;2024-03-08T13:43:42;12.63;;;8.40;;
19032;SDS011;9649;51.042;13.804;2024-03-08T13:48:55;13.52;;;9.55;;
19032;SDS011;9649;51.042;13.804;2024-03-08T13:54:00;12.80;;;8.80;;
19032;SDS011;9649;51.042;13.804;2024-03-08T13:59:10;12.45;;;8.55;;
19032;SDS011;9649;51.042;13.804;2024-03-08T14:04:17;11.90;;;8.45;;
19032;SDS011;9649;51.042;13.804;2024-03-08T14:09:27;11.88;;;8.48;;
19032;SDS011;9649;51.042;13.804;2024-03-08T14:14:38;11.20;;;8.05;;
19032;SDS011;9649;51.042;13.804;2024-03-08T14:19:50;11.75;;;8.95;;
19032;SDS011;9649;51.042;13.804;2024-03-08T14:24:59;12.52;;;8.02;;
19032;SDS011;9649;51.042;13.804;2024-03-08T14:30:07;10.15;;;7.35;;
19032;SDS011;9649;51.042;13.804;2024-03-08T14:35:33;10.15;;;7.13;;
19032;SDS011;9649;51.042;13.804;2024-03-08T14:40:45;9.70;;;6.60;;
19032;SDS011;9649;51.042;13.804;2024-03-08T14:45:50;10.85;;;7.45;;
19032;SDS011;9649;51.042;13.804;2024-03-08T14:50:54;9.90;;;6.95;;
19032;SDS011;9649;51.042;13.804;2024-03-08T14:55:58;11.07;;;6.47;;
19032;SDS011;9649;51.042;13.804;2024-03-08T15:01:01;10.40;;;7.18;;
19032;SDS011;9649;51.042;13.804;2024-03-08T15:06:04;9.52;;;6.68;;
19032;SDS011;9649;51.042;13.804;2024-03-08T15:11:10;10.32;;;7.25;;
19032;SDS011;9649;51.042;13.804;2024-03-08T15:16:13;10.05;;;6.72;;
19032;SDS011;9649;51.042;13.804;2024-03-08T15:21:18;10.07;;;6.68;;
19032;SDS011;9649;51.042;13.804;2024-03-08T15:26:22;9.50;;;6.70;;
19032;SDS011;9649;51.042;13.804;2024-03-08T15:31:27;10.32;;;6.50;;
19032;SDS011;9649;51.042;13.804;2024-03-08T15:36:30;11.05;;;6.70;;
19032;SDS011;9649;51.042;13.804;2024-03-08T15:41:35;10.88;;;7.43;;
19032;SDS011;9649;51.042;13.804;2024-03-08T15:46:38;12.50;;;7.07;;
19032;SDS011;9649;51.042;13.804;2024-03-08T15:51:41;10.25;;;6.53;;
19032;SDS011;9649;51.042;13.804;2024-03-08T15:56:45;14.07;;;7.43;;
19032;SDS011;9649;51.042;13.804;2024-03-08T16:01:48;13.23;;;7.20;;
19032;SDS011;9649;51.042;13.804;2024-03-08T16:06:53;11.55;;;7.57;;
19032;SDS011;9649;51.042;13.804;2024-03-08T16:11:58;13.45;;;8.27;;
19032;SDS011;9649;51.042;13.804;2024-03-08T16:17:01;14.52;;;9.02;;
19032;SDS011;9649;51.042;13.804;2024-03-08T16:22:04;13.40;;;8.43;;
19032;SDS011;9649;51.042;13.804;2024-03-08T16:27:08;15.95;;;9.35;;
19032;SDS011;9649;51.042;13.804;2024-03-08T16:32:11;15.43;;;9.52;;
19032;SDS011;9649;51.042;13.804;2024-03-08T16:37:13;19.23;;;10.77;;
19032;SDS011;9649;51.042;13.804;2024-03-08T16:42:19;15.43;;;10.00;;
19032;SDS011;9649;51.042;13.804;2024-03-08T16:47:22;16.43;;;10.30;;
19032;SDS011;9649;51.042;13.804;2024-03-08T16:52:25;21.57;;;12.47;;
19032;SDS011;9649;51.042;13.804;2024-03-08T16:57:31;24.67;;;13.87;;
19032;SDS011;9649;51.042;13.804;2024-03-08T17:02:34;19.33;;;11.70;;
19032;SDS011;9649;51.042;13.804;2024-03-08T17:07:39;19.80;;;10.67;;
19032;SDS011;9649;51.042;13.804;2024-03-08T17:12:43;16.87;;;9.17;;
19032;SDS011;9649;51.042;13.804;2024-03-08T17:17:49;19.33;;;10.17;;
19032;SDS011;9649;51.042;13.804;2024-03-08T17:22:54;19.17;;;9.73;;
19032;SDS011;9649;51.042;13.804;2024-03-08T17:28:05;16.93;;;9.10;;
19032;SDS011;9649;51.042;13.804;2024-03-08T17:33:10;15.73;;;7.93;;
19032;SDS011;9649;51.042;13.804;2024-03-08T17:38:17;13.00;;;7.43;;
19032;SDS011;9649;51.042;13.804;2024-03-08T17:43:24;13.43;;;7.63;;
19032;SDS011;9649;51.042;13.804;2024-03-08T17:48:28;11.67;;;7.20;;
19032;SDS011;9649;51.042;13.804;2024-03-08T17:53:31;12.40;;;7.23;;
19032;SDS011;9649;51.042;13.804;2024-03-08T17:58:37;13.93;;;8.03;;
19032;SDS011;9649;51.042;13.804;2024-03-08T18:03:39;13.63;;;7.57;;
19032;SDS011;9649;51.042;13.804;2024-03-08T18:08:42;32.43;;;18.90;;
19032;SDS011;9649;51.042;13.804;2024-03-08T18:13:48;47.80;;;27.70;;
19032;SDS011;9649;51.042;13.804;2024-03-08T18:18:52;56.60;;;31.13;;
19032;SDS011;9649;51.042;13.804;2024-03-08T18:23:55;54.93;;;30.87;;
19032;SDS011;9649;51.042;13.804;2024-03-08T18:29:03;58.40;;;31.17;;
19032;SDS011;9649;51.042;13.804;2024-03-08T18:34:10;60.90;;;31.57;;
19032;SDS011;9649;51.042;13.804;2024-03-08T18:39:13;58.47;;;32.30;;
19032;SDS011;9649;51.042;13.804;2024-03-08T18:44:20;55.40;;;31.87;;
19032;SDS011;9649;51.042;13.804;2024-03-08T18:49:24;54.07;;;31.70;;
19032;SDS011;9649;51.042;13.804;2024-03-08T18:54:27;60.03;;;32.67;;
19032;SDS011;9649;51.042;13.804;2024-03-08T18:59:31;55.17;;;31.07;;
19032;SDS011;9649;51.042;13.804;2024-03-08T19:04:36;56.03;;;31.87;;
19032;SDS011;9649;51.042;13.804;2024-03-08T19:09:40;53.70;;;30.63;;
19032;SDS011;9649;51.042;13.804;2024-03-08T19:14:49;55.83;;;30.83;;
19032;SDS011;9649;51.042;13.804;2024-03-08T19:19:55;53.50;;;31.10;;
19032;SDS011;9649;51.042;13.804;2024-03-08T19:24:58;47.30;;;27.53;;
19032;SDS011;9649;51.042;13.804;2024-03-08T19:30:06;55.73;;;28.03;;
19032;SDS011;9649;51.042;13.804;2024-03-08T19:35:12;24.07;;;13.57;;
19032;SDS011;9649;51.042;13.804;2024-03-08T19:40:20;19.77;;;12.03;;
19032;SDS011;9649;51.042;13.804;2024-03-08T19:45:29;22.47;;;11.73;;
19032;SDS011;9649;51.042;13.804;2024-03-08T19:50:37;22.20;;;11.13;;
19032;SDS011;9649;51.042;13.804;2024-03-08T19:55:47;18.50;;;10.70;;
19032;SDS011;9649;51.042;13.804;2024-03-08T20:00:54;17.43;;;10.03;;
19032;SDS011;9649;51.042;13.804;2024-03-08T20:05:57;16.83;;;9.27;;
19032;SDS011;9649;51.042;13.804;2024-03-08T20:11:00;16.57;;;10.03;;
19032;SDS011;9649;51.042;13.804;2024-03-08T20:16:12;20.47;;;10.63;;
19032;SDS011;9649;51.042;13.804;2024-03-08T20:21:16;16.80;;;9.47;;
19032;SDS011;9649;51.042;13.804;2024-03-08T20:26:19;17.17;;;9.40;;
19032;SDS011;9649;51.042;13.804;2024-03-08T20:31:25;17.93;;;9.87;;
19032;SDS011;9649;51.042;13.804;2024-03-08T20:36:29;17.00;;;9.83;;
19032;SDS011;9649;51.042;13.804;2024-03-08T20:41:32;18.83;;;10.13;;
19032;SDS011;9649;51.042;13.804;2024-03-08T20:46:38;18.17;;;9.93;;
19032;SDS011;9649;51.042;13.804;2024-03-08T20:51:41;18.73;;;9.43;;
19032;SDS011;9649;51.042;13.804;2024-03-08T20:56:44;18.00;;;9.93;;
19032;SDS011;9649;51.042;13.804;2024-03-08T21:01:49;16.83;;;9.77;;
19032;SDS011;9649;51.042;13.804;2024-03-08T21:06:53;18.07;;;9.67;;
19032;SDS011;9649;51.042;13.804;2024-03-08T21:11:57;24.00;;;10.80;;
19032;SDS011;9649;51.042;13.804;2024-03-08T21:17:05;23.40;;;11.17;;
19032;SDS011;9649;51.042;13.804;2024-03-08T21:22:08;21.60;;;11.13;;
19032;SDS011;9649;51.042;13.804;2024-03-08T21:27:18;20.97;;;11.23;;
19032;SDS011;9649;51.042;13.804;2024-03-08T21:32:33;19.40;;;10.37;;
19032;SDS011;9649;51.042;13.804;2024-03-08T21:37:45;21.37;;;11.00;;
19032;SDS011;9649;51.042;13.804;2024-03-08T21:42:59;20.40;;;10.53;;
19032;SDS011;9649;51.042;13.804;2024-03-08T21:48:27;21.50;;;11.07;;
19032;SDS011;9649;51.042;13.804;2024-03-08T21:53:54;23.17;;;12.20;;
19032;SDS011;9649;51.042;13.804;2024-03-08T21:59:35;24.40;;;11.07;;
19032;SDS011;9649;51.042;13.804;2024-03-08T22:04:54;25.63;;;11.20;;
19032;SDS011;9649;51.042;13.804;2024-03-08T22:10:30;19.00;;;10.87;;
19032;SDS011;9649;51.042;13.804;2024-03-08T22:15:45;22.80;;;11.13;;
19032;SDS011;9649;51.042;13.804;2024-03-08T22:21:08;21.83;;;11.57;;
19032;SDS011;9649;51.042;13.804;2024-03-08T22:26:31;22.00;;;10.80;;
19032;SDS011;9649;51.042;13.804;2024-03-08T22:31:53;23.73;;;11.50;;
19032;SDS011;9649;51.042;13.804;2024-03-08T22:37:20;21.57;;;12.07;;
19032;SDS011;9649;51.042;13.804;2024-03-08T22:42:33;23.53;;;11.47;;
19032;SDS011;9649;51.042;13.804;2024-03-08T22:47:39;26.47;;;12.20;;
19032;SDS011;9649;51.042;13.804;2024-03-08T22:52:50;23.70;;;11.63;;
19032;SDS011;9649;51.042;13.804;2024-03-08T22:57:58;20.07;;;10.60;;
19032;SDS011;9649;51.042;13.804;2024-03-08T23:03:02;23.33;;;11.80;;
19032;SDS011;9649;51.042;13.804;2024-03-08T23:08:10;24.60;;;12.00;;
19032;SDS011;9649;51.042;13.804;2024-03-08T23:13:13;23.07;;;11.83;;
19032;SDS011;9649;51.042;13.804;2024-03-08T23:18:17;21.83;;;11.33;;
19032;SDS011;9649;51.042;13.804;2024-03-08T23:23:22;20.13;;;10.90;;
19032;SDS011;9649;51.042;13.804;2024-03-08T23:28:26;24.17;;;12.20;;
19032;SDS011;9649;51.042;13.804;2024-03-08T23:33:30;26.63;;;11.27;;
19032;SDS011;9649;51.042;13.804;2024-03-08T23:38:35;25.77;;;11.87;;
19032;SDS011;9649;51.042;13.804;2024-03-08T23:43:38;21.60;;;11.00;;
19032;SDS011;9649;51.042;13.804;2024-03-08T23:48:44;22.17;;;11.53;;
19032;SDS011;9649;51.042;13.804;2024-03-08T23:53:49;22.13;;;11.40;;
19032;SDS011;9649;51.042;13.804;2024-03-08T23:58:52;22.93;;;11.27;;
